createdAt,value
2023-05-08T00:00:42.080Z,18.10
2023-05-08T00:03:09.595Z,18.00
2023-05-08T00:05:36.496Z,18.10
2023-05-08T00:08:03.649Z,18.00
2023-05-08T00:10:30.926Z,17.90
2023-05-08T00:12:57.957Z,17.90
2023-05-08T00:15:24.981Z,17.90
2023-05-08T00:17:52.137Z,18.00
2023-05-08T00:20:19.082Z,18.00
2023-05-08T00:22:46.167Z,18.00
2023-05-08T00:25:12.997Z,17.90
2023-05-08T00:27:40.079Z,17.70
2023-05-08T00:30:08.783Z,17.70
2023-05-08T00:32:35.690Z,18.10
2023-05-08T00:35:03.017Z,17.90
2023-05-08T00:37:29.934Z,17.90
2023-05-08T00:39:56.820Z,17.70
2023-05-08T00:42:23.650Z,17.80
2023-05-08T00:44:51.125Z,17.80
2023-05-08T00:47:17.901Z,17.80
2023-05-08T00:49:45.559Z,17.90
2023-05-08T00:52:13.614Z,17.80
2023-05-08T00:54:40.865Z,18.10
2023-05-08T00:57:08.695Z,17.50
2023-05-08T00:59:37.494Z,17.60
2023-05-08T01:02:05.238Z,17.70
2023-05-08T01:04:34.232Z,17.60
2023-05-08T01:07:03.046Z,17.80
2023-05-08T01:09:29.940Z,17.70
2023-05-08T01:12:08.933Z,17.80
2023-05-08T01:15:14.471Z,17.90
2023-05-08T01:18:35.767Z,17.70
2023-05-08T01:21:38.474Z,18.00
2023-05-08T01:24:43.557Z,17.70
2023-05-08T01:27:52.005Z,17.70
2023-05-08T01:30:54.591Z,17.70
2023-05-08T01:33:33.511Z,17.70
2023-05-08T01:36:20.712Z,17.50
2023-05-08T01:39:29.917Z,17.70
2023-05-08T01:42:18.252Z,17.80
2023-05-08T01:44:53.734Z,17.60
2023-05-08T01:47:28.875Z,17.70
2023-05-08T01:50:13.810Z,17.80
2023-05-08T01:53:02.928Z,17.60
2023-05-08T01:55:37.961Z,17.50
2023-05-08T01:58:09.618Z,17.70
2023-05-08T02:00:41.491Z,17.80
2023-05-08T02:03:10.795Z,17.50
2023-05-08T02:05:39.733Z,17.60
2023-05-08T02:08:11.267Z,17.60
2023-05-08T02:10:40.010Z,17.50
2023-05-08T02:13:10.590Z,17.40
2023-05-08T02:15:38.901Z,17.30
2023-05-08T02:18:09.351Z,17.30
2023-05-08T02:20:38.809Z,17.20
2023-05-08T02:23:06.558Z,17.50
2023-05-08T02:25:35.621Z,17.50
2023-05-08T02:28:03.843Z,17.20
2023-05-08T02:30:31.465Z,17.30
2023-05-08T02:33:01.094Z,17.30
2023-05-08T02:35:30.989Z,17.70
2023-05-08T02:50:29.944Z,17.90
2023-05-08T02:57:36.024Z,17.50
2023-05-08T03:00:20.294Z,17.30
2023-05-08T03:02:57.639Z,17.60
2023-05-08T03:05:38.514Z,17.40
2023-05-08T03:08:16.133Z,17.50
2023-05-08T03:10:49.312Z,17.50
2023-05-08T03:13:19.767Z,17.20
2023-05-08T03:15:57.488Z,17.10
2023-05-08T03:18:36.450Z,17.30
2023-05-08T03:21:08.906Z,17.30
2023-05-08T03:23:38.839Z,17.30
2023-05-08T03:26:08.149Z,17.30
2023-05-08T03:28:37.921Z,17.30
2023-05-08T03:31:06.593Z,17.10
2023-05-08T03:33:38.134Z,17.30
2023-05-08T03:36:06.272Z,17.30
2023-05-08T03:38:35.864Z,17.40
2023-05-08T03:41:03.221Z,17.10
2023-05-08T03:43:31.610Z,17.10
2023-05-08T03:46:00.033Z,17.10
2023-05-08T03:48:28.742Z,17.30
2023-05-08T03:50:56.678Z,17.20
2023-05-08T03:53:23.989Z,17.10
2023-05-08T03:55:51.199Z,17.20
2023-05-08T03:58:24.550Z,17.20
2023-05-08T04:01:52.107Z,17.50
2023-05-08T04:04:33.593Z,17.00
2023-05-08T04:07:10.514Z,16.90
2023-05-08T04:09:42.629Z,16.90
2023-05-08T04:12:22.310Z,17.00
2023-05-08T04:14:56.906Z,16.80
2023-05-08T04:17:39.383Z,16.80
2023-05-08T04:20:10.098Z,17.00
2023-05-08T04:22:40.661Z,17.10
2023-05-08T04:25:10.537Z,16.90
2023-05-08T04:27:38.626Z,17.00
2023-05-08T04:30:06.758Z,17.00
2023-05-08T04:32:36.797Z,17.10
2023-05-08T04:35:05.823Z,17.10
2023-05-08T04:37:32.809Z,17.20
2023-05-08T04:40:01.112Z,17.20
2023-05-08T04:42:28.275Z,17.40
2023-05-08T04:44:55.476Z,17.50
2023-05-08T04:47:24.075Z,17.20
2023-05-08T04:49:51.317Z,17.20
2023-05-08T04:52:18.239Z,17.20
2023-05-08T04:54:45.113Z,17.20
2023-05-08T04:57:12.120Z,17.20
2023-05-08T04:59:39.009Z,17.20
2023-05-08T05:02:08.221Z,17.30
2023-05-08T05:04:38.508Z,17.30
2023-05-08T05:07:05.789Z,17.40
2023-05-08T05:09:36.972Z,17.50
2023-05-08T05:12:05.511Z,17.40
2023-05-08T05:14:32.583Z,17.30
2023-05-08T05:16:59.949Z,17.60
2023-05-08T05:19:27.201Z,17.70
2023-05-08T05:21:54.216Z,17.80
2023-05-08T05:24:21.187Z,17.70
2023-05-08T05:26:48.003Z,17.80
2023-05-08T05:29:17.574Z,17.50
2023-05-08T05:31:44.585Z,17.70
2023-05-08T05:34:11.693Z,17.70
2023-05-08T05:36:38.548Z,17.70
2023-05-08T05:39:05.540Z,17.80
2023-05-08T05:41:32.384Z,17.80
2023-05-08T05:43:59.294Z,17.80
2023-05-08T05:46:32.332Z,17.40
2023-05-08T05:48:59.619Z,17.60
2023-05-08T05:51:41.678Z,17.90
2023-05-08T05:54:08.484Z,17.80
2023-05-08T05:56:35.484Z,17.80
2023-05-08T05:59:02.500Z,17.60
2023-05-08T06:01:29.609Z,17.70
2023-05-08T06:03:56.580Z,17.80
2023-05-08T06:06:23.567Z,17.90
2023-05-08T06:08:50.497Z,17.90
2023-05-08T06:11:17.417Z,18.00
2023-05-08T06:13:44.377Z,18.20
2023-05-08T06:16:11.981Z,18.10
2023-05-08T06:18:38.809Z,18.20
2023-05-08T06:21:05.758Z,18.10
2023-05-08T06:23:36.644Z,18.20
2023-05-08T06:26:08.094Z,18.20
2023-05-08T06:28:34.976Z,18.00
2023-05-08T06:31:02.056Z,17.90
2023-05-08T06:33:29.965Z,17.70
2023-05-08T06:36:11.203Z,17.90
2023-05-08T06:38:38.090Z,17.30
2023-05-08T06:41:05.106Z,17.80
2023-05-08T06:43:32.105Z,17.80
2023-05-08T06:45:59.022Z,17.80
2023-05-08T06:48:29.056Z,17.20
2023-05-08T06:50:58.591Z,17.50
2023-05-08T06:53:29.840Z,17.80
2023-05-08T06:55:59.310Z,17.80
2023-05-08T06:58:26.265Z,18.00
2023-05-08T07:00:53.095Z,18.30
2023-05-08T07:03:19.929Z,18.00
2023-05-08T07:05:46.832Z,18.20
2023-05-08T07:08:13.688Z,17.90
2023-05-08T07:10:40.844Z,18.30
2023-05-08T07:13:07.707Z,18.30
2023-05-08T07:15:34.598Z,18.00
2023-05-08T07:18:01.641Z,17.80
2023-05-08T07:20:28.636Z,18.10
2023-05-08T07:22:55.513Z,18.30
2023-05-08T07:25:22.467Z,18.50
2023-05-08T07:27:49.366Z,18.60
2023-05-08T07:30:16.501Z,18.20
2023-05-08T07:32:45.331Z,18.00
2023-05-08T07:35:15.637Z,18.00
2023-05-08T07:37:42.938Z,18.10
2023-05-08T07:40:35.936Z,18.20
2023-05-08T07:43:24.621Z,18.00
2023-05-08T07:45:52.092Z,18.30
2023-05-08T07:48:23.510Z,18.20
2023-05-08T07:50:51.034Z,18.30
2023-05-08T07:53:18.087Z,18.60
2023-05-08T07:55:45.156Z,18.80
2023-05-08T07:58:14.016Z,18.90
2023-05-08T08:00:41.019Z,19.00
2023-05-08T08:03:15.494Z,19.20
2023-05-08T08:05:42.966Z,19.20
2023-05-08T08:08:12.363Z,19.40
2023-05-08T08:10:39.771Z,19.10
2023-05-08T08:13:11.063Z,19.20
2023-05-08T08:15:38.117Z,19.20
2023-05-08T08:18:05.194Z,19.40
2023-05-08T08:20:32.114Z,19.50
2023-05-08T08:22:59.001Z,19.70
2023-05-08T08:25:28.309Z,19.80
2023-05-08T08:27:55.173Z,19.80
2023-05-08T08:30:22.364Z,20.00
2023-05-08T08:32:53.374Z,20.10
2023-05-08T08:35:20.512Z,19.90
2023-05-08T08:37:49.974Z,19.60
2023-05-08T08:40:17.001Z,19.30
2023-05-08T08:42:44.785Z,18.90
2023-05-08T08:45:12.334Z,19.40
2023-05-08T08:47:42.221Z,19.00
2023-05-08T08:50:12.782Z,18.40
2023-05-08T08:53:03.160Z,18.70
2023-05-08T08:55:31.142Z,18.60
2023-05-08T08:58:29.743Z,18.70
2023-05-08T09:00:58.386Z,18.80
2023-05-08T09:03:25.678Z,19.10
2023-05-08T09:05:54.531Z,18.90
2023-05-08T09:08:21.634Z,18.90
2023-05-08T09:10:48.927Z,19.20
2023-05-08T09:13:17.318Z,18.60
2023-05-08T09:15:45.983Z,18.50
2023-05-08T09:18:13.001Z,18.60
2023-05-08T09:20:55.859Z,18.50
2023-05-08T09:23:22.830Z,18.90
2023-05-08T09:25:54.003Z,18.60
2023-05-08T09:28:26.212Z,18.80
2023-05-08T09:31:02.003Z,19.00
2023-05-08T09:33:30.058Z,19.20
2023-05-08T09:35:57.546Z,19.40
2023-05-08T09:38:37.765Z,19.20
2023-05-08T09:41:16.541Z,19.30
2023-05-08T09:43:45.321Z,19.10
2023-05-08T09:46:27.093Z,19.00
2023-05-08T09:48:59.784Z,19.60
2023-05-08T09:51:29.667Z,19.70
2023-05-08T09:53:59.074Z,19.70
2023-05-08T09:56:39.765Z,19.80
2023-05-08T09:59:27.532Z,19.80
2023-05-08T10:01:56.535Z,20.00
2023-05-08T10:04:34.549Z,19.80
2023-05-08T10:07:02.833Z,19.80
2023-05-08T10:09:42.489Z,19.40
2023-05-08T10:12:14.393Z,19.40
2023-05-08T10:14:42.134Z,19.50
2023-05-08T10:17:11.678Z,19.60
2023-05-08T10:19:48.648Z,19.50
2023-05-08T10:22:18.723Z,19.60
2023-05-08T10:24:48.561Z,19.70
2023-05-08T10:27:40.029Z,19.60
2023-05-08T10:30:35.579Z,19.80
2023-05-08T10:33:09.433Z,19.70
2023-05-08T10:35:38.101Z,19.90
2023-05-08T10:38:08.610Z,20.00
2023-05-08T10:40:43.464Z,19.80
2023-05-08T10:43:11.567Z,19.80
2023-05-08T10:45:39.187Z,20.20
2023-05-08T10:48:27.998Z,19.90
2023-05-08T10:51:13.682Z,20.10
2023-05-08T10:53:53.922Z,20.00
2023-05-08T10:56:29.585Z,20.40
2023-05-08T10:58:58.866Z,20.40
2023-05-08T11:01:27.013Z,20.70
2023-05-08T11:03:56.127Z,20.90
2023-05-08T11:06:43.608Z,21.50
2023-05-08T11:09:41.849Z,21.70
2023-05-08T11:12:25.676Z,22.40
2023-05-08T11:15:06.088Z,22.60
2023-05-08T11:17:50.545Z,22.60
2023-05-08T11:20:26.007Z,22.80
2023-05-08T11:22:53.941Z,22.80
2023-05-08T11:25:44.331Z,22.40
2023-05-08T11:28:11.542Z,22.50
2023-05-08T11:30:42.263Z,21.60
2023-05-08T11:33:21.491Z,23.10
2023-05-08T11:36:21.565Z,23.10
2023-05-08T11:39:12.850Z,23.60
2023-05-08T11:41:42.922Z,24.80
2023-05-08T11:44:21.910Z,24.30
2023-05-08T11:46:53.922Z,23.40
2023-05-08T11:49:49.931Z,23.90
2023-05-08T11:52:21.041Z,24.60
2023-05-08T11:54:53.243Z,24.70
2023-05-08T11:57:21.889Z,24.00
2023-05-08T11:59:52.050Z,24.40
2023-05-08T12:02:47.869Z,24.90
2023-05-08T12:05:14.888Z,24.60
2023-05-08T12:07:52.363Z,24.60
2023-05-08T12:10:20.427Z,23.80
2023-05-08T12:13:22.709Z,24.30
2023-05-08T12:18:56.403Z,24.40
2023-05-08T12:21:24.597Z,24.30
2023-05-08T12:23:51.583Z,24.40
2023-05-08T12:26:18.486Z,24.70
2023-05-08T12:28:47.234Z,25.00
2023-05-08T12:31:14.515Z,25.40
2023-05-08T12:33:42.506Z,25.30
2023-05-08T12:36:09.612Z,25.10
2023-05-08T12:38:36.529Z,25.30
2023-05-08T12:41:04.693Z,25.90
2023-05-08T12:43:34.548Z,26.10
2023-05-08T12:46:04.006Z,26.60
2023-05-08T12:48:31.688Z,25.80
2023-05-08T12:51:04.074Z,24.50
2023-05-08T12:53:33.438Z,24.90
2023-05-08T12:56:05.321Z,24.40
2023-05-08T12:58:35.040Z,24.20
2023-05-08T13:01:20.022Z,24.20
2023-05-08T13:04:01.517Z,24.30
2023-05-08T13:06:29.757Z,24.40
2023-05-08T13:08:56.669Z,24.20
2023-05-08T13:11:33.283Z,23.50
2023-05-08T13:14:00.755Z,23.50
2023-05-08T13:16:27.692Z,23.30
2023-05-08T13:18:56.588Z,23.60
2023-05-08T13:21:25.101Z,22.90
2023-05-08T13:23:54.031Z,23.10
2023-05-08T13:26:21.687Z,22.50
2023-05-08T13:28:48.536Z,22.60
2023-05-08T13:31:15.361Z,22.20
2023-05-08T13:33:42.350Z,22.00
2023-05-08T13:36:09.327Z,22.10
2023-05-08T13:38:36.211Z,22.40
2023-05-08T13:41:03.052Z,22.10
2023-05-08T13:43:29.840Z,21.80
2023-05-08T13:45:57.439Z,21.50
2023-05-08T13:48:24.347Z,21.50
2023-05-08T13:50:51.139Z,21.60
2023-05-08T13:53:17.946Z,21.80
2023-05-08T13:55:45.475Z,21.50
2023-05-08T13:58:13.490Z,21.60
2023-05-08T14:00:40.358Z,21.60
2023-05-08T14:03:07.387Z,21.60
2023-05-08T14:05:34.832Z,21.90
2023-05-08T14:08:03.384Z,21.60
2023-05-08T14:10:30.330Z,21.90
2023-05-08T14:12:57.316Z,21.80
2023-05-08T14:15:37.371Z,22.20
2023-05-08T14:18:05.004Z,22.50
2023-05-08T14:20:31.876Z,22.90
2023-05-08T14:23:00.202Z,22.90
2023-05-08T14:25:27.209Z,22.40
2023-05-08T14:27:54.223Z,22.70
2023-05-08T14:30:21.203Z,22.50
2023-05-08T14:32:49.971Z,22.20
2023-05-08T14:35:17.159Z,22.40
2023-05-08T14:37:44.011Z,22.10
2023-05-08T14:40:14.259Z,22.10
2023-05-08T14:42:41.157Z,21.80
2023-05-08T14:45:09.148Z,21.70
2023-05-08T14:47:36.150Z,22.00
2023-05-08T14:50:17.884Z,22.10
2023-05-08T14:52:58.419Z,22.10
2023-05-08T14:55:27.625Z,22.40
2023-05-08T14:57:57.137Z,22.30
2023-05-08T15:03:43.905Z,23.50
2023-05-08T15:06:15.217Z,23.50
2023-05-08T15:08:43.292Z,24.20
2023-05-08T15:11:10.213Z,23.70
2023-05-08T15:13:37.140Z,22.90
2023-05-08T15:16:14.138Z,23.20
2023-05-08T15:18:45.963Z,23.30
2023-05-08T15:21:19.412Z,23.00
2023-05-08T15:23:46.594Z,22.90
2023-05-08T15:26:16.467Z,23.00
2023-05-08T15:28:45.845Z,23.70
2023-05-08T15:31:22.305Z,24.40
2023-05-08T15:34:01.362Z,24.90
2023-05-08T15:36:35.658Z,24.40
2023-05-08T15:39:02.625Z,24.10
2023-05-08T15:41:29.740Z,23.80
2023-05-08T15:43:57.666Z,23.60
2023-05-08T15:46:24.507Z,23.40
2023-05-08T15:48:51.341Z,23.40
2023-05-08T15:51:18.159Z,23.10
2023-05-08T15:53:45.310Z,23.30
2023-05-08T15:56:26.800Z,23.30
2023-05-08T15:58:55.491Z,23.20
2023-05-08T16:01:25.101Z,23.40
2023-05-08T16:03:52.292Z,23.40
2023-05-08T16:06:19.199Z,23.20
2023-05-08T16:08:51.965Z,23.20
2023-05-08T16:11:18.779Z,23.40
2023-05-08T16:13:45.706Z,23.50
2023-05-08T16:16:18.754Z,23.80
2023-05-08T16:18:45.718Z,23.60
2023-05-08T16:21:16.374Z,23.30
2023-05-08T16:23:43.345Z,22.60
2023-05-08T16:26:16.782Z,22.80
2023-05-08T16:35:25.227Z,22.30
2023-05-08T16:37:54.751Z,22.40
2023-05-08T16:40:21.691Z,22.30
2023-05-08T16:42:48.520Z,22.50
2023-05-08T16:45:15.827Z,22.20
2023-05-08T16:47:43.047Z,22.20
2023-05-08T16:50:15.651Z,22.50
2023-05-08T16:52:44.921Z,22.30
2023-05-08T16:55:14.471Z,22.30
2023-05-08T16:57:41.484Z,22.20
2023-05-08T17:00:12.033Z,22.30
2023-05-08T17:02:44.053Z,22.20
2023-05-08T17:05:11.467Z,22.30
2023-05-08T17:07:39.477Z,22.20
2023-05-08T17:10:07.039Z,21.80
2023-05-08T17:12:33.900Z,21.70
2023-05-08T17:15:00.974Z,21.80
2023-05-08T17:17:27.786Z,21.90
2023-05-08T17:19:59.465Z,21.90
2023-05-08T17:22:26.355Z,21.90
2023-05-08T17:24:55.241Z,21.90
2023-05-08T17:27:22.179Z,21.60
2023-05-08T17:29:49.163Z,21.80
2023-05-08T17:32:17.340Z,21.50
2023-05-08T17:34:58.492Z,21.60
2023-05-08T17:37:30.835Z,21.50
2023-05-08T17:40:00.498Z,21.40
2023-05-08T17:42:28.651Z,21.40
2023-05-08T17:44:55.768Z,21.50
2023-05-08T17:47:22.568Z,21.30
2023-05-08T17:49:51.792Z,21.00
2023-05-08T17:52:21.538Z,20.90
2023-05-08T17:54:57.604Z,20.80
2023-05-08T17:57:33.322Z,20.70
2023-05-08T18:00:00.291Z,20.70
2023-05-08T18:02:27.256Z,20.70
2023-05-08T18:04:54.435Z,20.60
2023-05-08T18:07:22.942Z,20.70
2023-05-08T18:09:49.889Z,20.60
2023-05-08T18:12:19.626Z,20.40
2023-05-08T18:14:49.153Z,20.40
2023-05-08T18:17:19.309Z,20.50
2023-05-08T18:19:48.802Z,20.40
2023-05-08T18:22:15.764Z,20.30
2023-05-08T18:24:42.651Z,20.10
2023-05-08T18:27:12.660Z,20.40
2023-05-08T18:29:39.582Z,20.30
2023-05-08T18:32:06.480Z,20.30
2023-05-08T18:34:33.627Z,20.30
2023-05-08T18:37:00.469Z,20.30
2023-05-08T18:39:27.316Z,20.00
2023-05-08T18:41:54.165Z,19.90
2023-05-08T18:44:21.047Z,20.00
2023-05-08T18:46:47.964Z,20.20
2023-05-08T18:49:14.856Z,20.30
2023-05-08T18:51:42.013Z,20.10
2023-05-08T18:54:08.860Z,20.20
2023-05-08T18:56:35.727Z,20.00
2023-05-08T18:59:13.021Z,19.90
2023-05-08T19:02:10.648Z,20.20
2023-05-08T19:07:26.852Z,20.20
2023-05-08T19:09:55.353Z,20.00
2023-05-08T19:12:48.834Z,20.00
2023-05-08T19:15:18.887Z,20.00
2023-05-08T19:17:48.576Z,20.10
2023-05-08T19:20:15.784Z,20.10
2023-05-08T19:22:42.836Z,20.00
2023-05-08T19:25:15.745Z,20.10
2023-05-08T19:27:42.696Z,19.80
2023-05-08T19:30:10.344Z,19.40
2023-05-08T19:32:37.328Z,19.70
2023-05-08T19:35:04.714Z,19.70
2023-05-08T19:37:31.692Z,19.80
2023-05-08T19:39:58.602Z,19.60
2023-05-08T19:42:25.889Z,19.50
2023-05-08T19:44:52.804Z,19.50
2023-05-08T19:47:19.702Z,19.70
2023-05-08T19:49:46.560Z,19.30
2023-05-08T19:52:13.630Z,19.00
2023-05-08T19:54:43.748Z,19.00
2023-05-08T19:57:15.700Z,19.30
2023-05-08T19:59:42.557Z,19.40
2023-05-08T20:02:18.420Z,19.40
2023-05-08T20:05:14.427Z,19.50
2023-05-08T20:07:52.545Z,19.50
2023-05-08T20:10:34.233Z,19.70
2023-05-08T20:13:21.472Z,19.70
2023-05-08T20:15:48.649Z,19.80
2023-05-08T20:18:23.146Z,19.50
2023-05-08T20:20:50.023Z,19.40
2023-05-08T20:23:19.830Z,19.60
2023-05-08T20:25:49.465Z,19.50
2023-05-08T20:28:22.118Z,19.50
2023-05-08T20:30:49.988Z,19.30
2023-05-08T20:33:17.104Z,19.20
2023-05-08T20:35:44.067Z,19.10
2023-05-08T20:38:10.965Z,19.10
2023-05-08T20:40:37.937Z,18.80
2023-05-08T20:43:04.870Z,18.80
2023-05-08T20:45:31.802Z,19.00
2023-05-08T20:47:58.753Z,18.80
2023-05-08T20:50:25.827Z,18.80
2023-05-08T20:52:52.687Z,19.00
2023-05-08T20:55:19.883Z,19.00
2023-05-08T20:57:46.828Z,19.20
2023-05-08T21:00:14.446Z,19.10
2023-05-08T21:02:42.703Z,19.10
2023-05-08T21:05:09.945Z,19.00
2023-05-08T21:07:36.881Z,19.10
2023-05-08T21:10:04.166Z,18.90
2023-05-08T21:12:30.989Z,19.10
2023-05-08T21:14:57.750Z,19.10
2023-05-08T21:17:24.641Z,18.70
2023-05-08T21:19:51.503Z,18.70
2023-05-08T21:22:18.396Z,18.60
2023-05-08T21:24:45.262Z,18.40
2023-05-08T21:27:12.071Z,18.40
2023-05-08T21:29:39.245Z,18.90
2023-05-08T21:32:08.752Z,18.90
2023-05-08T21:34:36.804Z,19.00
2023-05-08T21:37:03.732Z,18.70
2023-05-08T21:39:30.562Z,18.40
2023-05-08T21:41:57.348Z,18.10
2023-05-08T21:44:24.214Z,18.10
2023-05-08T21:46:51.054Z,18.50
2023-05-08T21:49:18.398Z,18.50
2023-05-08T21:51:45.776Z,18.60
2023-05-08T21:54:12.747Z,18.50
2023-05-08T21:56:40.034Z,18.40
2023-05-08T21:59:07.784Z,18.50
2023-05-08T22:01:34.710Z,18.50
2023-05-08T22:04:01.583Z,18.30
2023-05-08T22:06:28.478Z,18.30
2023-05-08T22:08:55.514Z,18.30
2023-05-08T22:11:22.515Z,18.40
2023-05-08T22:13:49.319Z,18.30
2023-05-08T22:16:16.194Z,18.50
2023-05-08T22:18:43.036Z,18.50
2023-05-08T22:21:09.931Z,18.70
2023-05-08T22:23:36.805Z,18.60
2023-05-08T22:26:03.665Z,18.60
2023-05-08T22:28:30.503Z,18.70
2023-05-08T22:30:57.485Z,18.60
2023-05-08T22:33:24.317Z,18.50
2023-05-08T22:35:51.092Z,18.40
2023-05-08T22:38:18.009Z,18.30
2023-05-08T22:40:47.913Z,18.40
2023-05-08T22:43:14.932Z,18.40
2023-05-08T22:45:41.816Z,18.40
2023-05-08T22:48:09.486Z,18.20
2023-05-08T22:50:36.761Z,18.20
2023-05-08T22:53:07.918Z,18.40
2023-05-08T22:55:35.741Z,18.40
2023-05-08T22:58:03.872Z,18.30
2023-05-08T23:00:31.134Z,18.40
2023-05-08T23:02:58.229Z,18.20
2023-05-08T23:05:25.396Z,18.50
2023-05-08T23:07:52.318Z,18.50
2023-05-08T23:10:19.293Z,18.40
2023-05-08T23:12:51.823Z,18.40
2023-05-08T23:15:20.981Z,18.50
2023-05-08T23:17:47.969Z,18.40
2023-05-08T23:20:17.185Z,18.40
2023-05-08T23:22:44.191Z,18.50
2023-05-08T23:25:13.705Z,18.60
2023-05-08T23:27:44.182Z,18.40
2023-05-08T23:30:16.733Z,18.40
2023-05-08T23:32:45.578Z,18.20
2023-05-08T23:35:12.776Z,18.20
2023-05-08T23:37:39.791Z,18.20
2023-05-08T23:40:08.075Z,18.40
2023-05-08T23:42:35.759Z,18.50
2023-05-08T23:45:03.102Z,18.30
2023-05-08T23:47:30.013Z,18.20
2023-05-08T23:49:56.998Z,18.30
2023-05-08T23:52:23.883Z,18.30
2023-05-08T23:54:51.014Z,18.20
2023-05-08T23:57:17.898Z,18.20
2023-05-08T23:59:44.741Z,18.10
